sensor_id;sensor_type;location;lat;lon;timestamp;pressure;altitude;pressure_sealevel;temperature;humidity
65546;BME280;52177;55.968;37.498;2023-01-27T00:00:18;99960.16;;;-2.53;78.46
65546;BME280;52177;55.968;37.498;2023-01-27T00:00:50;99953.25;;;-2.55;78.55
65546;BME280;52177;55.968;37.498;2023-01-27T00:01:20;99957.53;;;-2.53;78.48
65546;BME280;52177;55.968;37.498;2023-01-27T00:01:51;99964.47;;;-2.52;78.40
65546;BME280;52177;55.968;37.498;2023-01-27T00:02:21;99954.03;;;-2.52;78.47
65546;BME280;52177;55.968;37.498;2023-01-27T00:02:51;99960.06;;;-2.52;78.44
65546;BME280;52177;55.968;37.498;2023-01-27T00:03:22;99957.38;;;-2.50;78.57
65546;BME280;52177;55.968;37.498;2023-01-27T00:03:53;99964.34;;;-2.51;78.53
65546;BME280;52177;55.968;37.498;2023-01-27T00:04:23;99957.28;;;-2.49;78.52
65546;BME280;52177;55.968;37.498;2023-01-27T00:04:53;99961.75;;;-2.51;78.42
65546;BME280;52177;55.968;37.498;2023-01-27T00:05:24;99954.03;;;-2.52;78.35
65546;BME280;52177;55.968;37.498;2023-01-27T00:05:55;99948.81;;;-2.52;78.32
65546;BME280;52177;55.968;37.498;2023-01-27T00:06:27;99960.97;;;-2.53;78.24
65546;BME280;52177;55.968;37.498;2023-01-27T00:06:58;99954.94;;;-2.53;78.26
65546;BME280;52177;55.968;37.498;2023-01-27T00:07:28;99964.47;;;-2.52;78.12
65546;BME280;52177;55.968;37.498;2023-01-27T00:07:58;99954.28;;;-2.57;78.10
65546;BME280;52177;55.968;37.498;2023-01-27T00:08:29;99951.75;;;-2.59;78.05
65546;BME280;52177;55.968;37.498;2023-01-27T00:08:59;99957.16;;;-2.62;78.06
65546;BME280;52177;55.968;37.498;2023-01-27T00:09:29;99954.53;;;-2.62;78.16
65546;BME280;52177;55.968;37.498;2023-01-27T00:10:00;99952.75;;;-2.61;78.16
65546;BME280;52177;55.968;37.498;2023-01-27T00:10:30;99953.59;;;-2.61;78.28
65546;BME280;52177;55.968;37.498;2023-01-27T00:11:00;99947.53;;;-2.61;78.25
65546;BME280;52177;55.968;37.498;2023-01-27T00:11:49;99949.13;;;-2.59;78.32
65546;BME280;52177;55.968;37.498;2023-01-27T00:12:38;99958.81;;;-2.61;78.29
65546;BME280;52177;55.968;37.498;2023-01-27T00:13:27;99963.03;;;-2.58;78.35
65546;BME280;52177;55.968;37.498;2023-01-27T00:13:57;99955.28;;;-2.60;78.41
65546;BME280;52177;55.968;37.498;2023-01-27T00:14:28;99962.09;;;-2.57;78.46
65546;BME280;52177;55.968;37.498;2023-01-27T00:14:58;99958.47;;;-2.55;78.30
65546;BME280;52177;55.968;37.498;2023-01-27T00:15:29;99957.72;;;-2.57;78.27
65546;BME280;52177;55.968;37.498;2023-01-27T00:16:00;99953.53;;;-2.59;78.21
65546;BME280;52177;55.968;37.498;2023-01-27T00:16:30;99946.59;;;-2.60;78.11
65546;BME280;52177;55.968;37.498;2023-01-27T00:17:01;99964.78;;;-2.59;78.13
65546;BME280;52177;55.968;37.498;2023-01-27T00:17:31;99959.41;;;-2.56;78.00
65546;BME280;52177;55.968;37.498;2023-01-27T00:18:01;99956.72;;;-2.54;77.98
65546;BME280;52177;55.968;37.498;2023-01-27T00:18:32;99949.81;;;-2.55;77.89
65546;BME280;52177;55.968;37.498;2023-01-27T00:19:02;99957.66;;;-2.55;78.05
65546;BME280;52177;55.968;37.498;2023-01-27T00:19:32;99963.69;;;-2.55;77.96
65546;BME280;52177;55.968;37.498;2023-01-27T00:20:04;99959.41;;;-2.56;78.07
65546;BME280;52177;55.968;37.498;2023-01-27T00:20:35;99955.94;;;-2.56;78.08
65546;BME280;52177;55.968;37.498;2023-01-27T00:21:24;99960.25;;;-2.55;78.07
65546;BME280;52177;55.968;37.498;2023-01-27T00:22:13;99957.66;;;-2.55;78.11
65546;BME280;52177;55.968;37.498;2023-01-27T00:23:02;99954.34;;;-2.59;77.98
65546;BME280;52177;55.968;37.498;2023-01-27T00:23:51;99956.13;;;-2.59;77.88
65546;BME280;52177;55.968;37.498;2023-01-27T00:24:40;99960.34;;;-2.57;78.15
65546;BME280;52177;55.968;37.498;2023-01-27T00:25:11;99956.78;;;-2.56;77.97
65546;BME280;52177;55.968;37.498;2023-01-27T00:25:41;99958.63;;;-2.58;78.08
65546;BME280;52177;55.968;37.498;2023-01-27T00:26:14;99958.63;;;-2.58;77.99
65546;BME280;52177;55.968;37.498;2023-01-27T00:26:45;99958.94;;;-2.62;77.98
65546;BME280;52177;55.968;37.498;2023-01-27T00:27:15;99955.38;;;-2.61;78.20
65546;BME280;52177;55.968;37.498;2023-01-27T00:27:45;99962.19;;;-2.59;78.08
65546;BME280;52177;55.968;37.498;2023-01-27T00:28:16;99962.09;;;-2.57;77.98
65546;BME280;52177;55.968;37.498;2023-01-27T00:28:52;99957.53;;;-2.53;78.09
65546;BME280;52177;55.968;37.498;2023-01-27T00:29:22;99960.16;;;-2.53;77.79
65546;BME280;52177;55.968;37.498;2023-01-27T00:29:52;99954.09;;;-2.54;77.83
65546;BME280;52177;55.968;37.498;2023-01-27T00:30:23;99957.53;;;-2.53;77.68
65546;BME280;52177;55.968;37.498;2023-01-27T00:30:53;99957.53;;;-2.53;77.72
65546;BME280;52177;55.968;37.498;2023-01-27T00:31:23;99955.13;;;-2.57;77.62
65546;BME280;52177;55.968;37.498;2023-01-27T00:32:12;99954.28;;;-2.57;77.70
65546;BME280;52177;55.968;37.498;2023-01-27T00:33:01;99952.44;;;-2.55;77.87
65546;BME280;52177;55.968;37.498;2023-01-27T00:33:50;99942.00;;;-2.55;77.67
65546;BME280;52177;55.968;37.498;2023-01-27T00:34:23;99946.44;;;-2.57;77.58
65546;BME280;52177;55.968;37.498;2023-01-27T00:34:53;99942.97;;;-2.58;77.43
65546;BME280;52177;55.968;37.498;2023-01-27T00:35:23;99948.94;;;-2.56;77.62
65546;BME280;52177;55.968;37.498;2023-01-27T00:36:03;99945.50;;;-2.56;77.64
65546;BME280;52177;55.968;37.498;2023-01-27T00:36:35;99949.72;;;-2.53;77.63
65546;BME280;52177;55.968;37.498;2023-01-27T00:37:07;99947.09;;;-2.53;77.51
65546;BME280;52177;55.968;37.498;2023-01-27T00:37:37;99943.72;;;-2.56;77.49
65546;BME280;52177;55.968;37.498;2023-01-27T00:38:07;99942.06;;;-2.57;77.39
65546;BME280;52177;55.968;37.498;2023-01-27T00:38:38;99943.72;;;-2.56;77.56
65546;BME280;52177;55.968;37.498;2023-01-27T00:39:11;99942.91;;;-2.56;77.59
65546;BME280;52177;55.968;37.498;2023-01-27T00:39:42;99946.34;;;-2.56;77.66
65546;BME280;52177;55.968;37.498;2023-01-27T00:40:14;99946.25;;;-2.54;77.63
65546;BME280;52177;55.968;37.498;2023-01-27T00:40:45;99943.47;;;-2.51;77.65
65546;BME280;52177;55.968;37.498;2023-01-27T00:41:35;99946.09;;;-2.51;77.29
65546;BME280;52177;55.968;37.498;2023-01-27T00:42:05;99940.97;;;-2.52;77.27
65546;BME280;52177;55.968;37.498;2023-01-27T00:42:36;99942.72;;;-2.53;77.38
65546;BME280;52177;55.968;37.498;2023-01-27T00:43:06;99937.50;;;-2.53;77.40
65546;BME280;52177;55.968;37.498;2023-01-27T00:43:36;99935.16;;;-2.58;77.28
65546;BME280;52177;55.968;37.498;2023-01-27T00:44:07;99934.31;;;-2.58;77.39
65546;BME280;52177;55.968;37.498;2023-01-27T00:44:42;99942.16;;;-2.58;77.55
65546;BME280;52177;55.968;37.498;2023-01-27T00:45:32;99934.25;;;-2.57;77.54
65546;BME280;52177;55.968;37.498;2023-01-27T00:46:19;99942.06;;;-2.57;77.46
65546;BME280;52177;55.968;37.498;2023-01-27T00:46:50;99943.72;;;-2.56;77.45
65546;BME280;52177;55.968;37.498;2023-01-27T00:47:20;99935.00;;;-2.55;77.36
65546;BME280;52177;55.968;37.498;2023-01-27T00:47:51;99943.72;;;-2.56;77.37
65546;BME280;52177;55.968;37.498;2023-01-27T00:48:22;99939.63;;;-2.60;77.19
65546;BME280;52177;55.968;37.498;2023-01-27T00:48:52;99937.09;;;-2.61;77.16
65546;BME280;52177;55.968;37.498;2023-01-27T00:49:23;99940.56;;;-2.61;77.44
65546;BME280;52177;55.968;37.498;2023-01-27T00:49:54;99936.16;;;-2.60;77.48
65546;BME280;52177;55.968;37.498;2023-01-27T00:50:24;99942.97;;;-2.58;77.51
65546;BME280;52177;55.968;37.498;2023-01-27T00:50:54;99939.47;;;-2.57;77.52
65546;BME280;52177;55.968;37.498;2023-01-27T00:51:25;99941.13;;;-2.56;77.63
65546;BME280;52177;55.968;37.498;2023-01-27T00:51:55;99932.38;;;-2.55;77.57
65546;BME280;52177;55.968;37.498;2023-01-27T00:52:26;99935.00;;;-2.55;77.44
65546;BME280;52177;55.968;37.498;2023-01-27T00:52:56;99937.59;;;-2.55;77.42
65546;BME280;52177;55.968;37.498;2023-01-27T00:53:28;99936.66;;;-2.53;77.32
65546;BME280;52177;55.968;37.498;2023-01-27T00:53:58;99941.81;;;-2.52;77.38
65546;BME280;52177;55.968;37.498;2023-01-27T00:54:31;99930.41;;;-2.51;77.48
65546;BME280;52177;55.968;37.498;2023-01-27T00:55:02;99932.28;;;-2.53;77.32
65546;BME280;52177;55.968;37.498;2023-01-27T00:55:32;99932.28;;;-2.53;77.32
65546;BME280;52177;55.968;37.498;2023-01-27T00:56:03;99934.06;;;-2.53;77.47
65546;BME280;52177;55.968;37.498;2023-01-27T00:56:34;99938.25;;;-2.51;77.44
65546;BME280;52177;55.968;37.498;2023-01-27T00:57:04;99926.97;;;-2.51;77.43
65546;BME280;52177;55.968;37.498;2023-01-27T00:57:35;99936.50;;;-2.50;77.10
65546;BME280;52177;55.968;37.498;2023-01-27T00:58:06;99936.41;;;-2.49;77.23
65546;BME280;52177;55.968;37.498;2023-01-27T00:58:36;99932.19;;;-2.51;77.16
65546;BME280;52177;55.968;37.498;2023-01-27T00:59:07;99940.88;;;-2.51;77.16
65546;BME280;52177;55.968;37.498;2023-01-27T00:59:37;99937.22;;;-2.48;77.11
65546;BME280;52177;55.968;37.498;2023-01-27T01:00:08;99936.50;;;-2.50;76.98
65546;BME280;52177;55.968;37.498;2023-01-27T01:00:39;99940.88;;;-2.51;77.01
65546;BME280;52177;55.968;37.498;2023-01-27T01:01:11;99939.28;;;-2.53;76.97
65546;BME280;52177;55.968;37.498;2023-01-27T01:01:42;99941.81;;;-2.52;77.11
65546;BME280;52177;55.968;37.498;2023-01-27T01:02:12;99942.72;;;-2.53;77.09
65546;BME280;52177;55.968;37.498;2023-01-27T01:02:42;99935.75;;;-2.52;77.15
65546;BME280;52177;55.968;37.498;2023-01-27T01:03:13;99935.75;;;-2.52;77.21
65546;BME280;52177;55.968;37.498;2023-01-27T01:03:43;99943.59;;;-2.52;77.24
65546;BME280;52177;55.968;37.498;2023-01-27T01:04:13;99938.50;;;-2.56;77.10
65546;BME280;52177;55.968;37.498;2023-01-27T01:04:44;99942.06;;;-2.57;77.30
65546;BME280;52177;55.968;37.498;2023-01-27T01:05:14;99936.91;;;-2.58;77.41
65546;BME280;52177;55.968;37.498;2023-01-27T01:05:44;99935.06;;;-2.56;77.42
65546;BME280;52177;55.968;37.498;2023-01-27T01:06:16;99934.31;;;-2.58;77.34
65546;BME280;52177;55.968;37.498;2023-01-27T01:06:47;99931.81;;;-2.60;77.37
65546;BME280;52177;55.968;37.498;2023-01-27T01:07:17;99930.94;;;-2.60;77.50
65546;BME280;52177;55.968;37.498;2023-01-27T01:07:47;99930.94;;;-2.60;77.55
65546;BME280;52177;55.968;37.498;2023-01-27T01:08:18;99928.44;;;-2.62;77.82
65546;BME280;52177;55.968;37.498;2023-01-27T01:08:48;99931.06;;;-2.62;77.63
65546;BME280;52177;55.968;37.498;2023-01-27T01:09:20;99925.91;;;-2.63;77.75
65546;BME280;52177;55.968;37.498;2023-01-27T01:09:50;99927.59;;;-2.62;77.91
65546;BME280;52177;55.968;37.498;2023-01-27T01:10:21;99931.06;;;-2.62;77.87
65546;BME280;52177;55.968;37.498;2023-01-27T01:10:51;99929.34;;;-2.63;77.70
65546;BME280;52177;55.968;37.498;2023-01-27T01:11:22;99926.00;;;-2.65;77.74
65546;BME280;52177;55.968;37.498;2023-01-27T01:11:53;99928.59;;;-2.65;77.84
65546;BME280;52177;55.968;37.498;2023-01-27T01:12:23;99929.34;;;-2.63;77.89
65546;BME280;52177;55.968;37.498;2023-01-27T01:12:53;99938.13;;;-2.64;77.98
65546;BME280;52177;55.968;37.498;2023-01-27T01:13:24;99935.50;;;-2.64;78.04
65546;BME280;52177;55.968;37.498;2023-01-27T01:13:56;99942.41;;;-2.63;78.11
65546;BME280;52177;55.968;37.498;2023-01-27T01:14:27;99939.78;;;-2.63;78.12
65546;BME280;52177;55.968;37.498;2023-01-27T01:14:57;99933.47;;;-2.59;77.93
65546;BME280;52177;55.968;37.498;2023-01-27T01:15:27;99937.59;;;-2.55;77.78
65546;BME280;52177;55.968;37.498;2023-01-27T01:16:06;99941.13;;;-2.56;77.73
65546;BME280;52177;55.968;37.498;2023-01-27T01:16:37;99935.25;;;-2.59;77.60
65546;BME280;52177;55.968;37.498;2023-01-27T01:17:07;99932.81;;;-2.62;77.71
65546;BME280;52177;55.968;37.498;2023-01-27T01:17:37;99929.53;;;-2.66;77.66
65546;BME280;52177;55.968;37.498;2023-01-27T01:18:09;99939.13;;;-2.66;77.83
65546;BME280;52177;55.968;37.498;2023-01-27T01:18:40;99926.16;;;-2.68;77.85
65546;BME280;52177;55.968;37.498;2023-01-27T01:19:12;99933.91;;;-2.66;77.97
65546;BME280;52177;55.968;37.498;2023-01-27T01:19:42;99933.91;;;-2.66;78.04
65546;BME280;52177;55.968;37.498;2023-01-27T01:20:12;99932.16;;;-2.66;77.98
65546;BME280;52177;55.968;37.498;2023-01-27T01:20:44;99939.91;;;-2.64;78.24
65546;BME280;52177;55.968;37.498;2023-01-27T01:21:15;99934.56;;;-2.63;78.22
65546;BME280;52177;55.968;37.498;2023-01-27T01:21:45;99939.78;;;-2.63;78.10
65546;BME280;52177;55.968;37.498;2023-01-27T01:22:16;99936.34;;;-2.63;78.19
65546;BME280;52177;55.968;37.498;2023-01-27T01:22:46;99931.06;;;-2.62;78.30
65546;BME280;52177;55.968;37.498;2023-01-27T01:23:16;99931.81;;;-2.60;78.28
65546;BME280;52177;55.968;37.498;2023-01-27T01:23:47;99934.41;;;-2.60;78.42
65546;BME280;52177;55.968;37.498;2023-01-27T01:24:17;99921.38;;;-2.60;78.28
65546;BME280;52177;55.968;37.498;2023-01-27T01:24:48;99923.03;;;-2.59;78.28
65546;BME280;52177;55.968;37.498;2023-01-27T01:25:18;99930.94;;;-2.60;78.25
65546;BME280;52177;55.968;37.498;2023-01-27T01:25:52;99928.25;;;-2.59;78.25
65546;BME280;52177;55.968;37.498;2023-01-27T01:26:23;99930.88;;;-2.59;78.29
65546;BME280;52177;55.968;37.498;2023-01-27T01:26:53;99929.34;;;-2.63;78.06
65546;BME280;52177;55.968;37.498;2023-01-27T01:27:24;99929.47;;;-2.64;78.08
65546;BME280;52177;55.968;37.498;2023-01-27T01:27:54;99931.31;;;-2.66;78.22
65546;BME280;52177;55.968;37.498;2023-01-27T01:28:24;99928.97;;;-2.71;78.21
65546;BME280;52177;55.968;37.498;2023-01-27T01:28:55;99927.13;;;-2.69;78.40
65546;BME280;52177;55.968;37.498;2023-01-27T01:29:25;99929.72;;;-2.69;78.36
65546;BME280;52177;55.968;37.498;2023-01-27T01:29:55;99927.94;;;-2.68;78.50
65546;BME280;52177;55.968;37.498;2023-01-27T01:30:26;99927.88;;;-2.67;78.48
65546;BME280;52177;55.968;37.498;2023-01-27T01:31:10;99922.66;;;-2.67;78.39
65546;BME280;52177;55.968;37.498;2023-01-27T01:31:41;99931.97;;;-2.63;78.50
65546;BME280;52177;55.968;37.498;2023-01-27T01:32:11;99925.06;;;-2.64;78.44
65546;BME280;52177;55.968;37.498;2023-01-27T01:32:42;99933.75;;;-2.63;78.42
65546;BME280;52177;55.968;37.498;2023-01-27T01:33:12;99937.53;;;-2.69;78.41
65546;BME280;52177;55.968;37.498;2023-01-27T01:33:43;99929.72;;;-2.69;78.54
65546;BME280;52177;55.968;37.498;2023-01-27T01:34:13;99926.16;;;-2.68;78.45
65546;BME280;52177;55.968;37.498;2023-01-27T01:34:44;99926.25;;;-2.69;78.32
65546;BME280;52177;55.968;37.498;2023-01-27T01:35:14;99922.91;;;-2.71;78.33
65546;BME280;52177;55.968;37.498;2023-01-27T01:35:44;99928.13;;;-2.71;78.42
65546;BME280;52177;55.968;37.498;2023-01-27T01:36:17;99925.53;;;-2.71;78.55
65546;BME280;52177;55.968;37.498;2023-01-27T01:36:48;99926.34;;;-2.71;78.40
65546;BME280;52177;55.968;37.498;2023-01-27T01:37:18;99922.91;;;-2.71;78.43
65546;BME280;52177;55.968;37.498;2023-01-27T01:37:49;99933.34;;;-2.71;78.41
65546;BME280;52177;55.968;37.498;2023-01-27T01:38:19;99927.25;;;-2.72;78.38
65546;BME280;52177;55.968;37.498;2023-01-27T01:38:54;99922.16;;;-2.73;78.49
65546;BME280;52177;55.968;37.498;2023-01-27T01:39:25;99928.19;;;-2.73;78.45
65546;BME280;52177;55.968;37.498;2023-01-27T01:39:56;99927.25;;;-2.72;78.48
65546;BME280;52177;55.968;37.498;2023-01-27T01:40:26;99920.31;;;-2.71;78.38
65546;BME280;52177;55.968;37.498;2023-01-27T01:40:56;99925.41;;;-2.70;78.47
65546;BME280;52177;55.968;37.498;2023-01-27T01:41:27;99930.56;;;-2.68;78.32
65546;BME280;52177;55.968;37.498;2023-01-27T01:41:58;99928.78;;;-2.68;78.42
65546;BME280;52177;55.968;37.498;2023-01-27T01:43:19;99934.00;;;-2.68;78.20
65546;BME280;52177;55.968;37.498;2023-01-27T01:43:52;99927.13;;;-2.69;78.21
65546;BME280;52177;55.968;37.498;2023-01-27T01:44:28;99922.66;;;-2.67;78.24
65546;BME280;52177;55.968;37.498;2023-01-27T01:46:03;99920.13;;;-2.68;78.20
65546;BME280;52177;55.968;37.498;2023-01-27T01:46:33;99923.47;;;-2.66;78.05
65546;BME280;52177;55.968;37.498;2023-01-27T01:47:03;99914.81;;;-2.67;77.98
65546;BME280;52177;55.968;37.498;2023-01-27T01:47:34;99922.66;;;-2.67;77.80
65546;BME280;52177;55.968;37.498;2023-01-27T01:48:46;99919.28;;;-2.69;77.86
65546;BME280;52177;55.968;37.498;2023-01-27T01:49:25;99922.81;;;-2.70;77.78
65546;BME280;52177;55.968;37.498;2023-01-27T01:49:57;99918.69;;;-2.74;77.77
65546;BME280;52177;55.968;37.498;2023-01-27T01:50:28;99917.00;;;-2.75;78.00
65546;BME280;52177;55.968;37.498;2023-01-27T01:51:12;99922.22;;;-2.75;78.00
65546;BME280;52177;55.968;37.498;2023-01-27T01:51:46;99923.91;;;-2.74;78.15
65546;BME280;52177;55.968;37.498;2023-01-27T01:52:19;99917.78;;;-2.73;78.15
65546;BME280;52177;55.968;37.498;2023-01-27T01:52:50;99916.00;;;-2.72;78.07
65546;BME280;52177;55.968;37.498;2023-01-27T01:53:22;99918.53;;;-2.71;78.12
65546;BME280;52177;55.968;37.498;2023-01-27T01:54:12;99918.53;;;-2.71;78.10
65546;BME280;52177;55.968;37.498;2023-01-27T01:54:46;99915.09;;;-2.71;77.95
65546;BME280;52177;55.968;37.498;2023-01-27T01:55:21;99914.22;;;-2.72;78.01
65546;BME280;52177;55.968;37.498;2023-01-27T01:55:51;99917.78;;;-2.73;78.00
65546;BME280;52177;55.968;37.498;2023-01-27T01:56:26;99917.84;;;-2.74;78.08
65546;BME280;52177;55.968;37.498;2023-01-27T01:57:05;99916.94;;;-2.73;78.07
65546;BME280;52177;55.968;37.498;2023-01-27T01:57:37;99916.94;;;-2.73;78.07
65546;BME280;52177;55.968;37.498;2023-01-27T01:58:10;99917.78;;;-2.73;77.95
65546;BME280;52177;55.968;37.498;2023-01-27T01:58:43;99917.78;;;-2.73;77.99
65546;BME280;52177;55.968;37.498;2023-01-27T01:59:37;99912.53;;;-2.73;78.08
65546;BME280;52177;55.968;37.498;2023-01-27T02:00:09;99914.22;;;-2.72;78.11
65546;BME280;52177;55.968;37.498;2023-01-27T02:00:40;99911.72;;;-2.73;77.90
65546;BME280;52177;55.968;37.498;2023-01-27T02:01:12;99916.00;;;-2.72;78.13
65546;BME280;52177;55.968;37.498;2023-01-27T02:01:45;99916.81;;;-2.72;77.96
65546;BME280;52177;55.968;37.498;2023-01-27T02:02:17;99909.88;;;-2.71;78.07
65546;BME280;52177;55.968;37.498;2023-01-27T02:02:50;99914.22;;;-2.72;77.84
65546;BME280;52177;55.968;37.498;2023-01-27T02:03:22;99907.41;;;-2.74;77.93
65546;BME280;52177;55.968;37.498;2023-01-27T02:03:58;99909.19;;;-2.75;77.91
65546;BME280;52177;55.968;37.498;2023-01-27T02:04:36;99906.66;;;-2.77;77.90
65546;BME280;52177;55.968;37.498;2023-01-27T02:05:12;99903.22;;;-2.77;77.90
65546;BME280;52177;55.968;37.498;2023-01-27T02:05:43;99915.34;;;-2.76;78.05
65546;BME280;52177;55.968;37.498;2023-01-27T02:06:14;99904.91;;;-2.76;78.10
65546;BME280;52177;55.968;37.498;2023-01-27T02:06:58;99912.72;;;-2.76;78.08
65546;BME280;52177;55.968;37.498;2023-01-27T02:07:52;99915.34;;;-2.76;78.05
65546;BME280;52177;55.968;37.498;2023-01-27T02:08:34;99913.63;;;-2.77;77.94
65546;BME280;52177;55.968;37.498;2023-01-27T02:09:07;99908.59;;;-2.80;77.99
65546;BME280;52177;55.968;37.498;2023-01-27T02:09:37;99913.00;;;-2.81;77.99
65546;BME280;52177;55.968;37.498;2023-01-27T02:10:08;99911.28;;;-2.82;78.08
65546;BME280;52177;55.968;37.498;2023-01-27T02:10:40;99914.72;;;-2.81;78.05
65546;BME280;52177;55.968;37.498;2023-01-27T02:11:11;99918.22;;;-2.81;78.05
65546;BME280;52177;55.968;37.498;2023-01-27T02:11:42;99911.28;;;-2.82;78.05
65546;BME280;52177;55.968;37.498;2023-01-27T02:12:12;99912.13;;;-2.81;78.24
65546;BME280;52177;55.968;37.498;2023-01-27T02:12:43;99907.78;;;-2.81;78.26
65546;BME280;52177;55.968;37.498;2023-01-27T02:13:13;99913.00;;;-2.81;78.21
65546;BME280;52177;55.968;37.498;2023-01-27T02:13:44;99907.66;;;-2.79;78.27
65546;BME280;52177;55.968;37.498;2023-01-27T02:14:15;99901.78;;;-2.83;78.06
65546;BME280;52177;55.968;37.498;2023-01-27T02:14:46;99914.84;;;-2.83;78.06
65546;BME280;52177;55.968;37.498;2023-01-27T02:15:17;99909.50;;;-2.81;78.12
65546;BME280;52177;55.968;37.498;2023-01-27T02:15:49;99914.66;;;-2.80;77.94
65546;BME280;52177;55.968;37.498;2023-01-27T02:16:21;99907.78;;;-2.81;77.92
65546;BME280;52177;55.968;37.498;2023-01-27T02:16:51;99903.38;;;-2.80;77.92
65546;BME280;52177;55.968;37.498;2023-01-27T02:17:22;99915.69;;;-2.82;77.87
65546;BME280;52177;55.968;37.498;2023-01-27T02:17:52;99907.84;;;-2.82;78.04
65546;BME280;52177;55.968;37.498;2023-01-27T02:18:23;99909.50;;;-2.81;78.01
65546;BME280;52177;55.968;37.498;2023-01-27T02:18:55;99913.81;;;-2.80;77.96
65546;BME280;52177;55.968;37.498;2023-01-27T02:19:54;99910.47;;;-2.82;78.20
65546;BME280;52177;55.968;37.498;2023-01-27T02:20:43;99911.47;;;-2.85;78.16
65546;BME280;52177;55.968;37.498;2023-01-27T02:21:14;99912.38;;;-2.86;78.32
65546;BME280;52177;55.968;37.498;2023-01-27T02:21:47;99904.56;;;-2.86;78.14
65546;BME280;52177;55.968;37.498;2023-01-27T02:23:55;99914.25;;;-2.88;78.02
65546;BME280;52177;55.968;37.498;2023-01-27T02:24:33;99908.09;;;-2.87;78.08
65546;BME280;52177;55.968;37.498;2023-01-27T02:25:57;99913.06;;;-2.82;77.92
65546;BME280;52177;55.968;37.498;2023-01-27T02:26:35;99914.16;;;-2.86;77.94
65546;BME280;52177;55.968;37.498;2023-01-27T02:27:06;99910.63;;;-2.85;77.90
65546;BME280;52177;55.968;37.498;2023-01-27T02:27:37;99910.78;;;-2.88;77.82
65546;BME280;52177;55.968;37.498;2023-01-27T02:28:07;99911.66;;;-2.88;77.86
65546;BME280;52177;55.968;37.498;2023-01-27T02:28:37;99905.69;;;-2.90;77.80
65546;BME280;52177;55.968;37.498;2023-01-27T02:29:14;99909.38;;;-2.94;78.04
65546;BME280;52177;55.968;37.498;2023-01-27T02:29:45;99904.34;;;-2.97;78.21
65546;BME280;52177;55.968;37.498;2023-01-27T02:30:15;99907.78;;;-2.97;78.26
65546;BME280;52177;55.968;37.498;2023-01-27T02:30:46;99906.94;;;-2.97;78.16
65546;BME280;52177;55.968;37.498;2023-01-27T02:31:16;99910.38;;;-2.97;78.17
65546;BME280;52177;55.968;37.498;2023-01-27T02:31:46;99908.78;;;-2.99;78.09
65546;BME280;52177;55.968;37.498;2023-01-27T02:32:22;99905.34;;;-3.00;78.27
65546;BME280;52177;55.968;37.498;2023-01-27T02:32:52;99908.88;;;-3.01;78.40
65546;BME280;52177;55.968;37.498;2023-01-27T02:33:23;99909.63;;;-2.99;78.41
65546;BME280;52177;55.968;37.498;2023-01-27T02:33:59;99913.19;;;-3.00;78.46
65546;BME280;52177;55.968;37.498;2023-01-27T02:34:34;99902.00;;;-3.02;78.48
65546;BME280;52177;55.968;37.498;2023-01-27T02:35:10;99899.38;;;-3.02;78.49
65546;BME280;52177;55.968;37.498;2023-01-27T02:36:44;99908.13;;;-3.03;78.70
65546;BME280;52177;55.968;37.498;2023-01-27T02:37:17;99901.22;;;-3.04;78.62
65546;BME280;52177;55.968;37.498;2023-01-27T02:37:50;99908.13;;;-3.03;78.77
65546;BME280;52177;55.968;37.498;2023-01-27T02:38:21;99909.88;;;-3.03;78.75
65546;BME280;52177;55.968;37.498;2023-01-27T02:38:54;99904.41;;;-2.99;78.78
65546;BME280;52177;55.968;37.498;2023-01-27T02:39:31;99909.63;;;-2.99;78.65
65546;BME280;52177;55.968;37.498;2023-01-27T02:40:03;99905.25;;;-2.98;78.71
65546;BME280;52177;55.968;37.498;2023-01-27T02:40:35;99907.78;;;-2.97;78.65
65546;BME280;52177;55.968;37.498;2023-01-27T02:41:48;99903.31;;;-2.94;78.61
65546;BME280;52177;55.968;37.498;2023-01-27T02:42:20;99910.38;;;-2.97;78.68
65546;BME280;52177;55.968;37.498;2023-01-27T02:42:54;99908.53;;;-2.94;78.65
65546;BME280;52177;55.968;37.498;2023-01-27T02:43:25;99911.03;;;-2.93;78.68
65546;BME280;52177;55.968;37.498;2023-01-27T02:43:56;99907.59;;;-2.93;78.63
65546;BME280;52177;55.968;37.498;2023-01-27T02:44:26;99904.91;;;-2.92;78.71
65546;BME280;52177;55.968;37.498;2023-01-27T02:44:56;99912.56;;;-2.89;78.62
65546;BME280;52177;55.968;37.498;2023-01-27T02:45:27;99903.91;;;-2.89;78.67
65546;BME280;52177;55.968;37.498;2023-01-27T02:45:58;99905.56;;;-2.88;78.54
65546;BME280;52177;55.968;37.498;2023-01-27T02:46:28;99906.34;;;-2.86;78.69
65546;BME280;52177;55.968;37.498;2023-01-27T02:46:58;99907.09;;;-2.84;78.64
65546;BME280;52177;55.968;37.498;2023-01-27T02:47:29;99906.84;;;-2.80;78.45
65546;BME280;52177;55.968;37.498;2023-01-27T02:47:59;99909.50;;;-2.81;78.26
65546;BME280;52177;55.968;37.498;2023-01-27T02:48:30;99904.28;;;-2.81;78.13
65546;BME280;52177;55.968;37.498;2023-01-27T02:49:01;99907.84;;;-2.82;78.20
65546;BME280;52177;55.968;37.498;2023-01-27T02:49:31;99900.09;;;-2.84;78.30
65546;BME280;52177;55.968;37.498;2023-01-27T02:50:01;99911.47;;;-2.85;78.27
65546;BME280;52177;55.968;37.498;2023-01-27T02:50:32;99913.25;;;-2.85;78.44
65546;BME280;52177;55.968;37.498;2023-01-27T02:51:02;99913.13;;;-2.84;78.41
65546;BME280;52177;55.968;37.498;2023-01-27T02:51:33;99903.66;;;-2.85;78.50
65546;BME280;52177;55.968;37.498;2023-01-27T02:52:03;99908.09;;;-2.87;78.42
65546;BME280;52177;55.968;37.498;2023-01-27T02:52:33;99912.50;;;-2.87;78.65
65546;BME280;52177;55.968;37.498;2023-01-27T02:53:04;99906.34;;;-2.86;78.50
65546;BME280;52177;55.968;37.498;2023-01-27T02:53:34;99899.34;;;-2.86;78.60
65546;BME280;52177;55.968;37.498;2023-01-27T02:54:05;99903.56;;;-2.83;78.53
65546;BME280;52177;55.968;37.498;2023-01-27T02:54:36;99909.69;;;-2.84;78.58
65546;BME280;52177;55.968;37.498;2023-01-27T02:55:06;99903.56;;;-2.83;78.50
65546;BME280;52177;55.968;37.498;2023-01-27T02:55:37;99904.41;;;-2.83;78.45
65546;BME280;52177;55.968;37.498;2023-01-27T02:56:07;99907.91;;;-2.84;78.47
65546;BME280;52177;55.968;37.498;2023-01-27T02:56:38;99903.56;;;-2.83;78.42
65546;BME280;52177;55.968;37.498;2023-01-27T02:57:08;99904.41;;;-2.83;78.45